Time;durP1;ratioP1;P1;durP2;ratioP2;P2;SDS_P1;SDS_P2;PMS_P1;PMS_P2;Temp;Humidity;BMP_temperature;BMP_pressure;BME280_temperature;BME280_humidity;BME280_pressure;Samples;Min_cycle;Max_cycle;Signal;HPM_P1;HPM_P2
2023/06/26 00:00:21;;;;;;;;;;;;;;;23.74;100.00;99891.56;4962639;28;19909;-69
2023/06/26 00:02:46;;;;;;;;;;;;;;;23.78;100.00;99886.22;4972059;28;19914;-69
2023/06/26 00:05:12;;;;;;;;;;;;;;;23.73;100.00;99886.34;4971726;28;19910;-69
2023/06/26 00:07:37;;;;;;;;;;;;;;;23.71;100.00;99883.75;4959221;28;19922;-69
2023/06/26 00:10:03;;;;;;;;;;;;;;;23.73;100.00;99884.56;4952622;28;19918;-69
2023/06/26 00:12:29;;;;;;;;;;;;;;;23.73;100.00;99881.91;4968017;28;19918;-68
2023/06/26 00:14:54;;;;;;;;;;;;;;;23.69;100.00;99882.91;4972164;28;19980;-66
2023/06/26 00:17:20;;;;;;;;;;;;;;;23.62;100.00;99867.31;4971832;28;20372;-71
2023/06/26 00:19:45;;;;;;;;;;;;;;;23.45;100.00;99870.38;4971785;28;19921;-68
2023/06/26 00:22:11;;;;;;;;;;;;;;;23.30;100.00;99859.31;4971307;28;19925;-69
2023/06/26 00:24:36;;;;;;;;;;;;;;;23.33;100.00;99859.25;4954927;28;19961;-69
2023/06/26 00:27:01;;;;;;;;;;;;;;;23.40;100.00;99866.13;4961411;28;19926;-69
2023/06/26 00:29:27;;;;;;;;;;;;;;;23.45;100.00;99857.22;4952335;28;20408;-70
2023/06/26 00:31:52;;;;;;;;;;;;;;;23.44;100.00;99859.00;4951145;28;19926;-69
2023/06/26 00:34:17;;;;;;;;;;;;;;;23.47;100.00;99865.94;4968440;28;19920;-69
2023/06/26 00:36:43;;;;;;;;;;;;;;;23.52;100.00;99853.53;4971356;28;20440;-69
2023/06/26 00:39:09;;;;;;;;;;;;;;;23.56;100.00;99850.78;4971298;28;19914;-69
2023/06/26 00:41:34;;;;;;;;;;;;;;;23.63;100.00;99851.47;4971775;28;19989;-68
2023/06/26 00:43:59;;;;;;;;;;;;;;;23.63;100.00;99854.09;4971774;28;20337;-72
2023/06/26 00:46:25;;;;;;;;;;;;;;;23.55;100.00;99853.44;4971413;28;19925;-70
2023/06/26 00:48:50;;;;;;;;;;;;;;;23.37;100.00;99855.63;4971408;28;20041;-69
2023/06/26 00:51:15;;;;;;;;;;;;;;;23.30;100.00;99854.06;4971366;28;19953;-69
2023/06/26 00:53:42;;;;;;;;;;;;;;;22.96;100.00;99848.75;4971638;28;19922;-70
2023/06/26 00:56:07;;;;;;;;;;;;;;;22.90;100.00;99852.38;4971391;28;19910;-69
2023/06/26 00:58:33;;;;;;;;;;;;;;;22.85;100.00;99844.59;4973494;28;19973;-66
2023/06/26 01:00:58;;;;;;;;;;;;;;;22.78;100.00;99846.53;4975494;28;19910;-69
2023/06/26 01:03:24;;;;;;;;;;;;;;;22.74;100.00;99850.13;4975147;28;19914;-69
2023/06/26 01:05:54;;;;;;;;;;;;;;;22.61;100.00;99864.47;4974831;28;19940;-67
2023/06/26 01:08:20;;;;;;;;;;;;;;;22.41;100.00;99857.88;4975322;28;19921;-65
2023/06/26 01:10:46;;;;;;;;;;;;;;;22.28;100.00;99856.34;4974825;28;20295;-69
2023/06/26 01:13:12;;;;;;;;;;;;;;;22.10;100.00;99861.09;4975103;28;19914;-70
2023/06/26 01:15:38;;;;;;;;;;;;;;;21.85;100.00;99860.75;4975012;28;19952;-67
2023/06/26 01:18:04;;;;;;;;;;;;;;;21.80;100.00;99866.06;4974677;28;19945;-68
2023/06/26 01:20:31;;;;;;;;;;;;;;;21.89;100.00;99861.53;4974544;28;19914;-67
2023/06/26 01:23:07;;;;;;;;;;;;;;;22.00;100.00;99858.72;4975028;28;19914;-70
2023/06/26 01:25:38;;;;;;;;;;;;;;;21.86;100.00;99862.47;4974912;28;19914;-69
2023/06/26 01:28:05;;;;;;;;;;;;;;;21.78;100.00;99854.75;4974451;28;20012;-66
2023/06/26 01:30:31;;;;;;;;;;;;;;;21.99;100.00;99855.22;4974701;28;19922;-69
2023/06/26 01:32:57;;;;;;;;;;;;;;;22.21;100.00;99839.88;4974278;28;19917;-70
2023/06/26 01:35:22;;;;;;;;;;;;;;;22.36;100.00;99840.44;4975037;28;19965;-69
2023/06/26 01:37:47;;;;;;;;;;;;;;;22.48;100.00;99844.59;4974452;28;19910;-71
2023/06/26 01:40:13;;;;;;;;;;;;;;;22.58;100.00;99846.09;4974474;28;19914;-71
2023/06/26 01:42:39;;;;;;;;;;;;;;;22.54;100.00;99844.44;4974512;28;19957;-70
2023/06/26 01:45:12;;;;;;;;;;;;;;;22.52;100.00;99854.13;4974525;28;19925;-70
2023/06/26 01:47:41;;;;;;;;;;;;;;;22.37;100.00;99843.06;4974095;28;19921;-72
2023/06/26 01:50:09;;;;;;;;;;;;;;;22.23;100.00;99847.72;4974525;28;19914;-70
2023/06/26 01:52:53;;;;;;;;;;;;;;;22.11;100.00;99844.44;4974352;28;19972;-70
2023/06/26 01:55:23;;;;;;;;;;;;;;;22.01;100.00;99842.91;4974485;28;19917;-70
2023/06/26 01:57:52;;;;;;;;;;;;;;;22.10;100.00;99857.63;4973704;28;19933;-70
2023/06/26 02:00:19;;;;;;;;;;;;;;;21.98;100.00;99859.59;4974415;28;19922;-69
2023/06/26 02:02:44;;;;;;;;;;;;;;;22.06;100.00;99861.22;4920993;29;19929;-74
2023/06/26 02:05:10;;;;;;;;;;;;;;;22.17;100.00;99853.09;4955111;28;20285;-68
2023/06/26 02:07:35;;;;;;;;;;;;;;;22.20;100.00;99853.06;4960612;28;19917;-70
2023/06/26 02:10:00;;;;;;;;;;;;;;;22.17;100.00;99853.09;4974160;28;19914;-70
2023/06/26 02:12:26;;;;;;;;;;;;;;;21.95;100.00;99861.44;4974001;28;19914;-70
2023/06/26 02:14:51;;;;;;;;;;;;;;;21.86;100.00;99861.59;4973931;28;19914;-73
2023/06/26 02:17:16;;;;;;;;;;;;;;;21.99;100.00;99855.22;4973795;28;20001;-71
2023/06/26 02:19:47;;;;;;;;;;;;;;;22.06;100.00;99848.94;4974011;28;20328;-69
2023/06/26 02:22:12;;;;;;;;;;;;;;;22.07;100.00;99847.16;4973674;28;19914;-69
2023/06/26 02:24:37;;;;;;;;;;;;;;;22.11;100.00;99847.06;4973786;28;19965;-70
2023/06/26 02:27:03;;;;;;;;;;;;;;;21.97;100.00;99854.38;4973395;28;19914;-71
2023/06/26 02:29:28;;;;;;;;;;;;;;;21.92;100.00;99857.09;4973938;28;19925;-70
2023/06/26 02:31:53;;;;;;;;;;;;;;;21.86;100.00;99857.22;4973559;28;19918;-70
2023/06/26 02:34:18;;;;;;;;;;;;;;;21.81;100.00;99848.56;4973811;28;20384;-70
2023/06/26 02:36:44;;;;;;;;;;;;;;;21.60;100.00;99852.47;4972976;28;19969;-70
2023/06/26 02:39:09;;;;;;;;;;;;;;;21.55;100.00;99835.91;4973418;28;20013;-70
2023/06/26 02:41:34;;;;;;;;;;;;;;;21.64;100.00;99848.88;4973522;28;19910;-69
2023/06/26 02:43:59;;;;;;;;;;;;;;;21.73;100.00;99853.97;4973269;28;20395;-68
2023/06/26 02:46:25;;;;;;;;;;;;;;;21.62;100.00;99850.66;4973587;28;19910;-70
2023/06/26 02:48:50;;;;;;;;;;;;;;;21.31;100.00;99862.56;4973581;28;20005;-71
2023/06/26 02:51:15;;;;;;;;;;;;;;;21.09;100.00;99866.44;4972995;28;20398;-70
2023/06/26 02:53:41;;;;;;;;;;;;;;;20.85;100.00;99860.69;4973415;28;20302;-71
2023/06/26 02:56:06;;;;;;;;;;;;;;;21.02;100.00;99865.63;4972435;28;19914;-69
2023/06/26 02:58:31;;;;;;;;;;;;;;;20.84;100.00;99862.41;4973178;28;19945;-75
2023/06/26 03:00:56;;;;;;;;;;;;;;;20.79;100.00;99869.50;4973029;28;20000;-72
2023/06/26 03:03:22;;;;;;;;;;;;;;;20.82;100.00;99872.09;4973005;28;19914;-70
2023/06/26 03:05:47;;;;;;;;;;;;;;;20.91;100.00;99872.81;4972846;28;19953;-71
2023/06/26 03:08:12;;;;;;;;;;;;;;;21.04;100.00;99876.13;4973057;28;19914;-67
2023/06/26 03:10:37;;;;;;;;;;;;;;;21.16;100.00;99876.81;4972305;28;19921;-74
2023/06/26 03:13:03;;;;;;;;;;;;;;;21.24;100.00;99878.44;4972808;28;19914;-69
2023/06/26 03:15:28;;;;;;;;;;;;;;;21.10;100.00;99881.28;4973061;28;19914;-71
2023/06/26 03:17:53;;;;;;;;;;;;;;;21.03;100.00;99884.91;4973069;28;20407;-69
2023/06/26 03:20:18;;;;;;;;;;;;;;;21.07;100.00;99881.31;4971670;28;19914;-69
2023/06/26 03:22:44;;;;;;;;;;;;;;;21.07;100.00;99889.19;4972885;28;19926;-71
2023/06/26 03:25:09;;;;;;;;;;;;;;;20.97;100.00;99885.84;4972565;28;19914;-70
2023/06/26 03:27:34;;;;;;;;;;;;;;;21.01;100.00;99895.44;4972384;28;20017;-70
2023/06/26 03:30:00;;;;;;;;;;;;;;;21.05;100.00;99891.84;4972377;28;20013;-68
2023/06/26 03:32:25;;;;;;;;;;;;;;;21.03;100.00;99890.16;4972402;28;19925;-69
2023/06/26 03:34:52;;;;;;;;;;;;;;;21.03;100.00;99884.91;4972449;28;19922;-66
2023/06/26 03:37:18;;;;;;;;;;;;;;;21.04;100.00;99886.63;4972297;28;19918;-69
2023/06/26 03:39:43;;;;;;;;;;;;;;;21.00;100.00;99894.53;4972297;28;19973;-69
2023/06/26 03:42:08;;;;;;;;;;;;;;;21.00;100.00;99891.06;4972334;28;20002;-69
2023/06/26 03:44:33;;;;;;;;;;;;;;;21.03;100.00;99890.16;4972018;28;20369;-70
2023/06/26 03:46:59;;;;;;;;;;;;;;;21.09;100.00;99893.53;4972334;28;19918;-68
2023/06/26 03:49:24;;;;;;;;;;;;;;;21.13;100.00;99890.00;4972187;28;19914;-70
2023/06/26 03:51:49;;;;;;;;;;;;;;;21.24;100.00;99897.66;4972416;28;19914;-67
2023/06/26 03:54:15;;;;;;;;;;;;;;;21.30;100.00;99889.69;4972467;28;19960;-69
2023/06/26 03:56:40;;;;;;;;;;;;;;;21.35;100.00;99897.50;4972043;28;19961;-71
2023/06/26 03:59:05;;;;;;;;;;;;;;;21.42;100.00;99891.25;4971804;28;19921;-69
2023/06/26 04:01:32;;;;;;;;;;;;;;;21.45;100.00;99893.81;4972053;28;19914;-66
2023/06/26 04:03:57;;;;;;;;;;;;;;;21.50;100.00;99894.59;4971960;28;20036;-69
2023/06/26 04:06:22;;;;;;;;;;;;;;;21.56;100.00;99893.69;4972337;28;20037;-68
2023/06/26 04:08:48;;;;;;;;;;;;;;;21.58;100.00;99888.38;4972146;28;20304;-70
2023/06/26 04:11:13;;;;;;;;;;;;;;;21.64;100.00;99897.00;4971668;28;20001;-69
2023/06/26 04:13:38;;;;;;;;;;;;;;;21.74;100.00;99892.47;4972086;28;19914;-69
2023/06/26 04:16:04;;;;;;;;;;;;;;;21.73;100.00;99892.50;4971751;28;20068;-70
2023/06/26 04:18:29;;;;;;;;;;;;;;;21.74;100.00;99902.13;4971775;28;19914;-69
2023/06/26 04:21:05;;;;;;;;;;;;;;;21.79;100.00;99892.38;4972184;28;19910;-70
2023/06/26 04:23:31;;;;;;;;;;;;;;;21.85;100.00;99894.91;4971137;28;19918;-67
2023/06/26 04:25:58;;;;;;;;;;;;;;;21.92;100.00;99903.53;4971490;28;20052;-69
2023/06/26 04:28:23;;;;;;;;;;;;;;;21.95;100.00;99906.97;4971417;28;19925;-69
2023/06/26 04:30:48;;;;;;;;;;;;;;;21.80;100.00;99910.75;4971667;28;19922;-68
2023/06/26 04:33:15;;;;;;;;;;;;;;;21.78;100.00;99909.91;4971603;28;19917;-70
2023/06/26 04:35:40;;;;;;;;;;;;;;;21.76;100.00;99910.84;4972099;28;20361;-70
2023/06/26 04:38:05;;;;;;;;;;;;;;;21.80;100.00;99918.63;4971187;28;19914;-70
2023/06/26 04:40:30;;;;;;;;;;;;;;;21.65;100.00;99921.53;4971532;28;19918;-70
2023/06/26 04:42:56;;;;;;;;;;;;;;;21.68;100.00;99920.63;4971443;28;19969;-67
2023/06/26 04:45:21;;;;;;;;;;;;;;;21.72;100.00;99924.91;4971776;28;20001;-68
2023/06/26 04:47:46;;;;;;;;;;;;;;;21.71;100.00;99921.44;4971775;28;19941;-69
2023/06/26 04:50:12;;;;;;;;;;;;;;;21.73;100.00;99918.78;4971561;28;20360;-72
2023/06/26 04:52:37;;;;;;;;;;;;;;;21.78;100.00;99928.31;4970877;28;19962;-70
2023/06/26 04:55:02;;;;;;;;;;;;;;;21.68;100.00;99924.09;4971343;28;20433;-70
2023/06/26 04:57:28;;;;;;;;;;;;;;;21.76;100.00;99924.84;4971318;28;19914;-67
2023/06/26 04:59:53;;;;;;;;;;;;;;;21.86;100.00;99928.16;4972225;28;19921;-67
2023/06/26 05:02:19;;;;;;;;;;;;;;;21.91;100.00;99926.31;4971609;28;19910;-69
2023/06/26 05:04:46;;;;;;;;;;;;;;;22.06;100.00;99924.31;4971547;28;19914;-67
2023/06/26 05:07:11;;;;;;;;;;;;;;;22.20;100.00;99931.91;4971390;28;19960;-70
2023/06/26 05:09:36;;;;;;;;;;;;;;;22.30;100.00;99934.31;4971434;28;19957;-71
2023/06/26 05:12:02;;;;;;;;;;;;;;;22.36;100.00;99929.84;4953912;28;19968;-70
2023/06/26 05:14:27;;;;;;;;;;;;;;;22.48;100.00;99947.16;4971507;28;19914;-70
2023/06/26 05:16:53;;;;;;;;;;;;;;;22.44;100.00;99935.84;4968239;28;20402;-70
2023/06/26 05:19:18;;;;;;;;;;;;;;;22.36;100.00;99946.50;4962571;28;19914;-71
2023/06/26 05:21:43;;;;;;;;;;;;;;;22.34;100.00;99950.03;4971012;28;19914;-70
2023/06/26 05:24:10;;;;;;;;;;;;;;;22.34;100.00;99943.00;4966368;28;19918;-69
2023/06/26 05:26:36;;;;;;;;;;;;;;;22.53;100.00;99940.03;4966564;28;19961;-70
2023/06/26 05:29:01;;;;;;;;;;;;;;;22.60;100.00;99937.28;4970885;28;19969;-67
2023/06/26 05:31:27;;;;;;;;;;;;;;;22.62;100.00;99951.25;4970176;28;19922;-72
2023/06/26 05:33:55;;;;;;;;;;;;;;;22.73;100.00;99945.75;4971586;28;20408;-71
2023/06/26 05:36:21;;;;;;;;;;;;;;;22.56;100.00;99954.00;4970431;28;20379;-70
2023/06/26 05:38:48;;;;;;;;;;;;;;;22.61;100.00;99965.28;4971365;28;19924;-69
2023/06/26 05:41:13;;;;;;;;;;;;;;;22.69;100.00;99965.16;4958074;28;20321;-72
2023/06/26 05:43:39;;;;;;;;;;;;;;;22.84;100.00;99958.69;4971478;28;19914;-70
2023/06/26 05:46:04;;;;;;;;;;;;;;;22.64;100.00;99971.41;4974566;28;19922;-70
2023/06/26 05:48:29;;;;;;;;;;;;;;;22.78;100.00;99964.09;4974239;28;19921;-70
2023/06/26 05:50:55;;;;;;;;;;;;;;;22.83;100.00;99958.69;4974119;28;19954;-70
2023/06/26 05:53:21;;;;;;;;;;;;;;;22.89;100.00;99964.72;4973882;28;19914;-70
2023/06/26 05:55:48;;;;;;;;;;;;;;;23.05;100.00;99967.88;4974294;28;20004;-68
2023/06/26 05:58:14;;;;;;;;;;;;;;;23.20;100.00;99971.97;4974235;28;19957;-71
2023/06/26 06:00:40;;;;;;;;;;;;;;;23.30;100.00;99966.47;4974321;28;20632;-70
2023/06/26 06:03:06;;;;;;;;;;;;;;;23.43;100.00;99968.75;4974276;28;19981;-71
2023/06/26 06:05:31;;;;;;;;;;;;;;;23.57;100.00;99967.56;4973820;28;19910;-70
2023/06/26 06:07:56;;;;;;;;;;;;;;;23.70;100.00;99971.63;4974086;28;19914;-74
2023/06/26 06:10:22;;;;;;;;;;;;;;;23.84;100.00;99986.19;4973483;28;19914;-68
2023/06/26 06:12:47;;;;;;;;;;;;;;;23.88;100.00;99975.53;4974251;28;19921;-70
2023/06/26 06:15:12;;;;;;;;;;;;;;;23.84;100.00;99978.28;4973926;28;20399;-72
2023/06/26 06:17:37;;;;;;;;;;;;;;;23.95;100.00;99967.50;4973559;28;19922;-68
2023/06/26 06:20:03;;;;;;;;;;;;;;;23.78;100.00;99976.69;4973367;28;19914;-70
2023/06/26 06:22:28;;;;;;;;;;;;;;;23.95;100.00;99975.41;4937353;28;19996;-69
2023/06/26 06:24:54;;;;;;;;;;;;;;;24.16;100.00;99960.78;4971803;28;19914;-68
2023/06/26 06:27:19;;;;;;;;;;;;;;;24.32;100.00;99972.63;4974055;28;19949;-74
2023/06/26 06:29:44;;;;;;;;;;;;;;;24.32;100.00;99974.41;4973391;28;20012;-69
2023/06/26 06:32:10;;;;;;;;;;;;;;;24.30;100.00;99979.75;4956223;28;19957;-68
2023/06/26 06:34:35;;;;;;;;;;;;;;;24.25;100.00;99971.09;4973699;28;19918;-68
2023/06/26 06:37:02;;;;;;;;;;;;;;;24.27;100.00;99977.19;4973108;28;19925;-71
2023/06/26 06:39:27;;;;;;;;;;;;;;;24.28;100.00;99975.44;4973833;28;19972;-71
2023/06/26 06:41:52;;;;;;;;;;;;;;;24.28;100.00;99972.78;4973710;28;19953;-71
2023/06/26 06:44:19;;;;;;;;;;;;;;;24.34;100.00;99978.75;4973092;28;19993;-68
2023/06/26 06:46:44;;;;;;;;;;;;;;;24.36;100.00;99974.31;4973434;28;19957;-70
2023/06/26 06:49:09;;;;;;;;;;;;;;;24.45;100.00;99975.81;4973227;28;19914;-70
2023/06/26 06:51:34;;;;;;;;;;;;;;;24.50;100.00;99979.19;4973025;28;19914;-69
2023/06/26 06:54:00;;;;;;;;;;;;;;;24.61;100.00;99978.88;4973609;28;19914;-71
2023/06/26 06:56:25;;;;;;;;;;;;;;;24.83;100.00;99981.75;4972868;28;19910;-71
2023/06/26 06:58:50;;;;;;;;;;;;;;;24.89;100.00;99983.38;4973360;28;20373;-68
2023/06/26 07:01:16;;;;;;;;;;;;;;;24.93;100.00;99985.00;4973756;28;19910;-69
2023/06/26 07:03:41;;;;;;;;;;;;;;;24.98;100.00;99987.50;4973765;28;19922;-69
2023/06/26 07:06:06;;;;;;;;;;;;;;;24.89;100.00;99980.72;4973244;28;20299;-70
2023/06/26 07:08:32;;;;;;;;;;;;;;;24.85;100.00;99987.03;4973491;28;19914;-70
2023/06/26 07:10:57;;;;;;;;;;;;;;;24.76;100.00;99996.06;4973628;28;19914;-68
2023/06/26 07:13:22;;;;;;;;;;;;;;;24.87;100.00;99985.19;4973335;28;19960;-71
2023/06/26 07:15:48;;;;;;;;;;;;;;;25.10;100.00;99992.41;4973513;28;19945;-70
2023/06/26 07:18:13;;;;;;;;;;;;;;;25.30;100.00;99991.78;4973254;28;19918;-67
2023/06/26 07:20:39;;;;;;;;;;;;;;;25.40;100.00;99989.75;4972969;28;20405;-69
2023/06/26 07:23:04;;;;;;;;;;;;;;;25.35;100.00;99986.34;4973060;28;19921;-69
2023/06/26 07:25:29;;;;;;;;;;;;;;;25.45;100.00;99986.97;4973129;28;19921;-67
2023/06/26 07:27:54;;;;;;;;;;;;;;;25.52;100.00;99994.63;4973204;28;20028;-67
2023/06/26 07:30:20;;;;;;;;;;;;;;;25.61;100.00;99997.88;4972868;28;19922;-67
2023/06/26 07:32:45;;;;;;;;;;;;;;;25.66;100.00;99996.81;4973176;28;20375;-70
2023/06/26 07:35:10;;;;;;;;;;;;;;;25.73;99.94;100002.75;4972714;28;19914;-68
2023/06/26 07:37:36;;;;;;;;;;;;;;;25.76;98.59;100002.66;4972987;28;19913;-69
2023/06/26 07:40:02;;;;;;;;;;;;;;;25.77;99.54;99996.47;4972841;28;19914;-69
2023/06/26 07:42:27;;;;;;;;;;;;;;;25.82;98.45;100006.84;4972805;28;19914;-67
2023/06/26 07:44:52;;;;;;;;;;;;;;;25.82;100.00;100002.44;4972714;28;19914;-70
2023/06/26 07:47:18;;;;;;;;;;;;;;;25.89;98.74;100004.91;4973122;28;20017;-67
2023/06/26 07:49:43;;;;;;;;;;;;;;;25.98;99.12;100000.16;4972524;28;19921;-69
2023/06/26 07:52:11;;;;;;;;;;;;;;;25.95;100.00;100002.03;4972858;28;19914;-70
2023/06/26 07:54:37;;;;;;;;;;;;;;;26.05;96.73;100010.53;4972783;28;19914;-67
2023/06/26 07:57:04;;;;;;;;;;;;;;;26.08;96.48;100007.78;4972639;28;20406;-68
2023/06/26 07:59:30;;;;;;;;;;;;;;;26.13;95.78;100013.78;4972371;28;19964;-71
2023/06/26 08:01:56;;;;;;;;;;;;;;;26.13;94.81;100019.06;4971863;28;20372;-70
2023/06/26 08:04:23;;;;;;;;;;;;;;;26.07;94.37;100019.28;4971188;28;19918;-70
2023/06/26 08:06:49;;;;;;;;;;;;;;;26.06;100.00;100017.59;4954541;28;19996;-70
2023/06/26 08:09:14;;;;;;;;;;;;;;;26.03;100.00;100012.34;4954498;28;19914;-67
2023/06/26 08:11:39;;;;;;;;;;;;;;;25.95;100.00;100012.63;4971377;28;19914;-68
2023/06/26 08:14:05;;;;;;;;;;;;;;;25.85;98.37;100009.41;4971532;28;19949;-71
2023/06/26 08:16:30;;;;;;;;;;;;;;;25.89;96.66;100018.13;4971551;28;19920;-68
2023/06/26 08:18:55;;;;;;;;;;;;;;;25.93;96.82;100017.97;4968899;28;19925;-69
2023/06/26 08:21:20;;;;;;;;;;;;;;;25.95;98.66;100016.13;4972340;28;19914;-71
2023/06/26 08:23:46;;;;;;;;;;;;;;;25.94;97.41;100011.72;4972128;28;20312;-70
2023/06/26 08:26:11;;;;;;;;;;;;;;;25.90;96.79;100015.41;4972289;28;20001;-70
2023/06/26 08:28:36;;;;;;;;;;;;;;;25.91;95.24;100019.78;4972077;28;20316;-69
2023/06/26 08:31:01;;;;;;;;;;;;;;;25.94;96.62;100019.66;4972084;28;19972;-68
2023/06/26 08:33:27;;;;;;;;;;;;;;;25.90;97.80;100019.84;4971778;28;20656;-67
2023/06/26 08:35:52;;;;;;;;;;;;;;;25.82;98.09;100020.09;4972267;28;20004;-67
2023/06/26 08:38:18;;;;;;;;;;;;;;;25.83;96.99;100022.69;4953855;28;19925;-67
2023/06/26 08:40:43;;;;;;;;;;;;;;;25.88;98.64;100024.31;4971816;28;20315;-70
2023/06/26 08:43:08;;;;;;;;;;;;;;;25.91;95.40;100016.28;4971750;28;19918;-70
2023/06/26 08:45:34;;;;;;;;;;;;;;;25.97;93.31;100026.63;4954752;28;19957;-70
2023/06/26 08:48:00;;;;;;;;;;;;;;;25.99;94.96;100019.53;4972100;28;20365;-70
2023/06/26 08:50:27;;;;;;;;;;;;;;;25.88;98.24;100019.88;4971662;28;19914;-68
2023/06/26 08:53:04;;;;;;;;;;;;;;;25.91;99.24;100022.44;4971880;28;19918;-70
2023/06/26 08:55:31;;;;;;;;;;;;;;;25.79;100.00;100014.91;4953593;28;19973;-69
2023/06/26 08:57:57;;;;;;;;;;;;;;;25.68;100.00;100021.44;4971804;28;19914;-69
2023/06/26 09:00:23;;;;;;;;;;;;;;;25.62;100.00;100018.09;4971569;28;20311;-70
2023/06/26 09:02:48;;;;;;;;;;;;;;;25.64;100.00;100014.50;4971607;28;19953;-69
2023/06/26 09:05:13;;;;;;;;;;;;;;;25.69;97.49;100024.94;4971034;28;19993;-67
2023/06/26 09:07:39;;;;;;;;;;;;;;;25.63;99.12;100018.06;4969735;28;20009;-70
2023/06/26 09:10:04;;;;;;;;;;;;;;;25.62;100.00;100021.63;4968777;28;19957;-72
2023/06/26 09:12:30;;;;;;;;;;;;;;;25.67;100.00;100016.16;4954473;28;19922;-69
2023/06/26 09:14:56;;;;;;;;;;;;;;;25.59;100.00;100020.88;4969945;28;20384;-69
2023/06/26 09:17:26;;;;;;;;;;;;;;;25.48;100.00;100018.56;4970440;28;19918;-69
2023/06/26 09:19:51;;;;;;;;;;;;;;;25.01;100.00;100025.25;4973752;28;19918;-69
2023/06/26 09:22:17;;;;;;;;;;;;;;;25.01;100.00;100019.09;4975197;28;20459;-69
2023/06/26 09:24:43;;;;;;;;;;;;;;;24.83;100.00;100024.00;4974892;28;20005;-69
2023/06/26 09:27:09;;;;;;;;;;;;;;;24.89;100.00;100014.19;4975050;28;19914;-70
2023/06/26 09:29:34;;;;;;;;;;;;;;;25.01;100.00;100024.38;4974676;28;20014;-70
2023/06/26 09:31:59;;;;;;;;;;;;;;;25.27;100.00;100014.78;4974470;28;20024;-67
2023/06/26 09:34:31;;;;;;;;;;;;;;;25.40;100.00;100013.53;4974865;28;20439;-70
2023/06/26 09:36:57;;;;;;;;;;;;;;;25.44;100.00;100017.78;4975028;28;19929;-74
2023/06/26 09:39:22;;;;;;;;;;;;;;;25.56;100.00;100018.31;4974674;28;19914;-70
2023/06/26 09:41:48;;;;;;;;;;;;;;;25.70;100.00;100025.81;4974504;28;19949;-68
2023/06/26 09:44:14;;;;;;;;;;;;;;;25.88;100.00;100021.66;4973633;28;19914;-70
2023/06/26 09:46:39;;;;;;;;;;;;;;;25.98;100.00;100025.72;4974156;28;20344;-68
2023/06/26 09:49:06;;;;;;;;;;;;;;;26.16;100.00;100027.78;4974310;28;19914;-71
2023/06/26 09:51:32;;;;;;;;;;;;;;;26.24;100.00;100034.56;4957140;28;19914;-70
2023/06/26 09:53:58;;;;;;;;;;;;;;;26.23;100.00;100039.03;4974500;28;19914;-70
2023/06/26 09:56:23;;;;;;;;;;;;;;;26.36;100.00;100043.88;4974436;28;19924;-70
2023/06/26 09:58:49;;;;;;;;;;;;;;;26.40;100.00;100038.41;4973937;28;19964;-70
2023/06/26 10:01:14;;;;;;;;;;;;;;;26.27;100.00;100040.63;4974482;28;19918;-71
2023/06/26 10:03:39;;;;;;;;;;;;;;;26.24;100.00;100038.06;4974152;28;20396;-71
2023/06/26 10:06:04;;;;;;;;;;;;;;;26.28;100.00;100037.06;4974284;28;19921;-70
2023/06/26 10:08:30;;;;;;;;;;;;;;;26.34;100.00;100027.19;4974225;28;19937;-70
2023/06/26 10:10:56;;;;;;;;;;;;;;;26.41;100.00;100026.91;4973866;28;20384;-68
2023/06/26 10:13:23;;;;;;;;;;;;;;;26.51;100.00;100030.09;4973886;28;20308;-70
2023/06/26 10:15:50;;;;;;;;;;;;;;;26.60;100.00;100027.09;4971696;28;20365;-70
2023/06/26 10:18:17;;;;;;;;;;;;;;;26.57;100.00;100029.00;4971410;28;19918;-68
2023/06/26 10:20:42;;;;;;;;;;;;;;;26.46;99.21;100029.41;4973913;28;20013;-69
2023/06/26 10:23:08;;;;;;;;;;;;;;;26.42;100.00;100027.78;4973640;28;20402;-70
2023/06/26 10:25:36;;;;;;;;;;;;;;;26.30;99.41;100031.72;4974026;28;20432;-68
2023/06/26 10:28:03;;;;;;;;;;;;;;;26.12;100.00;100028.81;4974195;28;19922;-67
2023/06/26 10:30:31;;;;;;;;;;;;;;;26.08;100.00;100018.38;4973946;28;20636;-71
2023/06/26 10:32:57;;;;;;;;;;;;;;;26.28;100.00;100015.91;4974128;28;20349;-68
2023/06/26 10:35:24;;;;;;;;;;;;;;;26.41;97.22;100011.03;4974168;28;19949;-70
2023/06/26 10:37:50;;;;;;;;;;;;;;;26.52;98.36;100013.28;4974255;28;19914;-72
2023/06/26 10:40:23;;;;;;;;;;;;;;;26.50;97.67;100011.63;4974368;28;19914;-70
2023/06/26 10:42:48;;;;;;;;;;;;;;;26.44;96.50;100023.28;4973211;28;20340;-69
2023/06/26 10:45:17;;;;;;;;;;;;;;;26.34;96.82;100013.94;4973461;28;19914;-68
2023/06/26 10:47:46;;;;;;;;;;;;;;;26.33;96.20;100013.06;4973782;28;19921;-69
2023/06/26 10:50:25;;;;;;;;;;;;;;;26.35;95.51;100013.88;4973844;28;19925;-72
2023/06/26 10:53:09;;;;;;;;;;;;;;;26.36;95.06;100012.97;4973450;28;19914;-69
2023/06/26 10:55:35;;;;;;;;;;;;;;;26.44;99.36;99999.47;4973496;28;20376;-68
2023/06/26 10:58:01;;;;;;;;;;;;;;;26.40;95.17;100011.09;4975080;28;20001;-66
2023/06/26 11:00:27;;;;;;;;;;;;;;;26.47;95.24;100009.94;4962255;28;20467;-69
2023/06/26 11:02:53;;;;;;;;;;;;;;;26.56;93.39;100003.44;4955537;28;19914;-67
2023/06/26 11:05:28;;;;;;;;;;;;;;;26.61;95.30;100006.78;4959808;28;19985;-72
2023/06/26 11:08:03;;;;;;;;;;;;;;;26.47;94.97;99997.56;4956698;28;20361;-69
2023/06/26 11:10:28;;;;;;;;;;;;;;;26.42;96.60;99994.22;4962274;28;19918;-69
2023/06/26 11:12:54;;;;;;;;;;;;;;;26.39;93.35;99993.47;4953859;28;20303;-65
2023/06/26 11:15:19;;;;;;;;;;;;;;;26.48;96.02;99990.47;4953936;28;19937;-65
2023/06/26 11:17:45;;;;;;;;;;;;;;;26.47;94.38;99988.78;4966545;28;20361;-68
2023/06/26 11:20:11;;;;;;;;;;;;;;;26.48;93.65;99982.53;4953216;28;19969;-72
2023/06/26 11:22:37;;;;;;;;;;;;;;;26.45;93.18;99988.81;4953434;28;19925;-69
2023/06/26 11:25:04;;;;;;;;;;;;;;;26.34;90.91;99982.19;4966998;28;19924;-68
2023/06/26 11:27:32;;;;;;;;;;;;;;;26.42;92.35;99990.72;4972801;28;20045;-67
2023/06/26 11:29:57;;;;;;;;;;;;;;;26.47;92.41;99999.38;4961724;28;19922;-68
2023/06/26 11:32:24;;;;;;;;;;;;;;;26.37;92.33;100001.47;4952712;28;20042;-68
2023/06/26 11:34:50;;;;;;;;;;;;;;;26.38;94.55;99995.28;4963454;28;19918;-69
2023/06/26 11:37:19;;;;;;;;;;;;;;;26.31;94.77;99999.91;4966307;28;19922;-68
2023/06/26 11:39:44;;;;;;;;;;;;;;;26.21;90.57;99993.22;4939522;28;19922;-68
2023/06/26 11:42:10;;;;;;;;;;;;;;;26.26;91.95;99995.72;4952020;28;20452;-70
2023/06/26 11:44:40;;;;;;;;;;;;;;;26.29;91.57;99993.81;4953440;28;19915;-69
2023/06/26 11:47:05;;;;;;;;;;;;;;;26.30;91.40;99998.16;4934886;28;19922;-69
2023/06/26 11:49:31;;;;;;;;;;;;;;;26.38;90.71;99991.75;4952878;28;19941;-70
2023/06/26 11:51:56;;;;;;;;;;;;;;;26.39;91.04;99989.03;4953262;28;19914;-71
2023/06/26 11:54:26;;;;;;;;;;;;;;;26.36;90.39;99985.66;4953429;28;19915;-70
2023/06/26 11:56:56;;;;;;;;;;;;;;;26.35;90.74;99994.50;4911806;29;20385;-70
2023/06/26 11:59:22;;;;;;;;;;;;;;;26.33;89.75;99999.84;4971899;28;20365;-68
2023/06/26 12:01:49;;;;;;;;;;;;;;;26.41;92.66;100000.44;4956079;28;19918;-69
2023/06/26 12:04:16;;;;;;;;;;;;;;;26.44;87.40;100000.34;4953343;28;20296;-69
2023/06/26 12:06:49;;;;;;;;;;;;;;;26.58;86.23;99997.19;4960656;28;19922;-69
2023/06/26 12:09:17;;;;;;;;;;;;;;;26.70;86.28;99998.50;4965747;28;19922;-69
2023/06/26 12:11:43;;;;;;;;;;;;;;;26.78;87.77;99988.50;4953122;28;20009;-68
2023/06/26 12:14:09;;;;;;;;;;;;;;;26.83;85.44;99991.00;4952084;28;20376;-67
2023/06/26 12:16:35;;;;;;;;;;;;;;;26.87;85.95;99982.00;4952890;28;19941;-68
2023/06/26 12:19:04;;;;;;;;;;;;;;;26.83;87.73;99977.75;4952161;28;20005;-69
2023/06/26 12:21:42;;;;;;;;;;;;;;;26.74;86.68;99983.38;4952649;28;19914;-69
2023/06/26 12:24:15;;;;;;;;;;;;;;;26.71;87.42;99991.44;4958967;28;19961;-70
2023/06/26 12:26:43;;;;;;;;;;;;;;;26.76;86.74;99985.06;4971520;28;19971;-68
2023/06/26 12:29:11;;;;;;;;;;;;;;;26.77;86.56;99993.88;4971142;28;20384;-69